createdAt,value
2023-10-03T00:00:58.041Z,89.50
2023-10-03T00:03:26.438Z,89.60
2023-10-03T00:05:56.930Z,89.60
2023-10-03T00:08:25.084Z,89.70
2023-10-03T00:10:52.339Z,89.80
2023-10-03T00:13:21.082Z,89.70
2023-10-03T00:15:51.941Z,89.80
2023-10-03T00:18:19.670Z,89.90
2023-10-03T00:20:48.807Z,89.90
2023-10-03T00:23:16.281Z,90.10
2023-10-03T00:25:44.274Z,89.90
2023-10-03T00:28:12.443Z,89.70
2023-10-03T00:30:41.997Z,89.80
2023-10-03T00:33:18.872Z,89.70
2023-10-03T00:35:46.848Z,89.80
2023-10-03T00:38:19.654Z,89.70
2023-10-03T00:40:52.584Z,89.70
2023-10-03T00:43:20.826Z,89.60
2023-10-03T00:45:50.751Z,89.80
2023-10-03T00:48:19.982Z,89.80
2023-10-03T00:50:47.885Z,89.90
2023-10-03T00:53:16.958Z,89.80
2023-10-03T00:55:45.475Z,89.90
2023-10-03T00:58:13.647Z,89.90
2023-10-03T01:00:51.682Z,89.80
2023-10-03T01:03:39.384Z,89.80
2023-10-03T01:06:14.177Z,90.00
2023-10-03T01:08:47.524Z,89.90
2023-10-03T01:11:17.700Z,90.20
2023-10-03T01:13:51.279Z,90.30
2023-10-03T01:16:32.274Z,90.20
2023-10-03T01:19:01.544Z,90.20
2023-10-03T01:21:30.136Z,90.10
2023-10-03T01:23:57.644Z,90.20
2023-10-03T01:26:26.282Z,90.20
2023-10-03T01:28:53.655Z,90.10
2023-10-03T01:31:21.194Z,89.90
2023-10-03T01:33:48.597Z,89.90
2023-10-03T01:36:16.008Z,90.00
2023-10-03T01:38:43.884Z,89.80
2023-10-03T01:41:14.143Z,89.80
2023-10-03T01:43:44.905Z,89.90
2023-10-03T01:46:14.170Z,89.80
2023-10-03T01:48:43.159Z,89.80
2023-10-03T01:51:10.861Z,90.00
2023-10-03T01:53:42.447Z,90.00
2023-10-03T01:56:10.933Z,90.20
2023-10-03T01:58:39.149Z,90.40
2023-10-03T02:01:07.045Z,90.50
2023-10-03T02:03:36.696Z,90.50
2023-10-03T02:06:08.117Z,90.60
2023-10-03T02:08:36.363Z,90.60
2023-10-03T02:11:07.487Z,90.40
2023-10-03T02:13:36.440Z,90.80
2023-10-03T02:16:04.123Z,90.80
2023-10-03T02:18:37.580Z,90.80
2023-10-03T02:21:05.585Z,90.90
2023-10-03T02:23:34.526Z,90.70
2023-10-03T02:26:11.708Z,90.70
2023-10-03T02:28:43.649Z,90.70
2023-10-03T02:31:11.893Z,90.70
2023-10-03T02:33:45.223Z,90.80
2023-10-03T02:36:16.459Z,90.70
2023-10-03T02:38:45.255Z,90.70
2023-10-03T02:41:14.302Z,90.70
2023-10-03T02:43:48.555Z,90.60
2023-10-03T02:46:16.188Z,90.50
2023-10-03T02:48:45.784Z,90.50
2023-10-03T02:51:15.909Z,90.40
2023-10-03T02:53:44.453Z,90.30
2023-10-03T02:56:15.302Z,90.30
2023-10-03T02:58:42.957Z,90.40
2023-10-03T03:01:10.725Z,90.30
2023-10-03T03:03:40.190Z,90.20
2023-10-03T03:06:16.855Z,90.10
2023-10-03T03:08:47.033Z,90.10
2023-10-03T03:11:14.959Z,90.10
2023-10-03T03:13:42.998Z,90.20
2023-10-03T03:16:13.257Z,90.20
2023-10-03T03:18:45.274Z,90.20
2023-10-03T03:21:22.262Z,90.10
2023-10-03T03:24:09.765Z,89.90
2023-10-03T03:26:39.196Z,90.00
2023-10-03T03:29:21.041Z,89.90
2023-10-03T03:31:51.055Z,89.80
2023-10-03T03:34:18.768Z,89.80
2023-10-03T03:36:48.152Z,89.20
2023-10-03T03:39:17.598Z,89.70
2023-10-03T03:41:45.980Z,89.80
2023-10-03T03:44:16.569Z,89.80
2023-10-03T03:46:44.693Z,89.20
2023-10-03T03:49:15.396Z,89.20
2023-10-03T03:51:43.163Z,89.20
2023-10-03T03:54:13.871Z,89.80
2023-10-03T03:56:42.642Z,89.70
2023-10-03T03:59:11.189Z,89.20
2023-10-03T04:01:39.274Z,89.10
2023-10-03T04:04:08.969Z,89.60
2023-10-03T04:06:37.404Z,89.70
2023-10-03T04:09:09.791Z,89.20
2023-10-03T04:11:38.482Z,89.30
2023-10-03T04:14:08.166Z,89.80
2023-10-03T04:16:46.083Z,89.30
2023-10-03T04:19:14.153Z,89.30
2023-10-03T04:21:43.087Z,89.10
2023-10-03T04:24:13.368Z,89.20
2023-10-03T04:26:44.250Z,89.30
2023-10-03T04:29:16.701Z,89.20
2023-10-03T04:31:48.515Z,89.20
2023-10-03T04:34:21.182Z,89.10
2023-10-03T04:36:49.340Z,89.20
2023-10-03T04:39:17.460Z,89.10
2023-10-03T04:41:46.274Z,89.00
2023-10-03T04:44:17.297Z,89.10
2023-10-03T04:46:46.827Z,89.30
2023-10-03T04:49:15.188Z,89.20
2023-10-03T04:51:47.851Z,89.10
2023-10-03T04:54:18.158Z,89.20
2023-10-03T04:56:47.178Z,89.00
2023-10-03T04:59:15.554Z,89.10
2023-10-03T05:01:47.405Z,89.20
2023-10-03T05:04:16.619Z,89.20
2023-10-03T05:06:50.788Z,89.10
2023-10-03T05:09:19.721Z,89.10
2023-10-03T05:11:50.491Z,89.20
2023-10-03T05:14:19.010Z,89.30
2023-10-03T05:16:46.671Z,89.20
2023-10-03T05:19:13.829Z,89.20
2023-10-03T05:21:46.359Z,89.10
2023-10-03T05:24:16.188Z,89.20
2023-10-03T05:26:44.025Z,89.30
2023-10-03T05:29:12.546Z,89.10
2023-10-03T05:31:42.831Z,89.10
2023-10-03T05:34:11.465Z,88.90
2023-10-03T05:36:42.002Z,88.70
2023-10-03T05:42:14.267Z,89.00
2023-10-03T05:44:42.385Z,89.10
2023-10-03T05:47:13.010Z,89.30
2023-10-03T05:49:41.238Z,88.90
2023-10-03T05:52:10.245Z,89.10
2023-10-03T05:54:37.944Z,89.10
2023-10-03T05:57:05.355Z,89.20
2023-10-03T05:59:36.091Z,89.00
2023-10-03T06:02:04.141Z,88.90
2023-10-03T06:04:38.060Z,88.70
2023-10-03T06:07:08.879Z,88.70
2023-10-03T06:09:36.203Z,88.50
2023-10-03T06:12:04.127Z,88.20
2023-10-03T06:14:32.070Z,88.10
2023-10-03T06:17:06.135Z,88.10
2023-10-03T06:19:36.677Z,88.20
2023-10-03T06:22:04.916Z,88.30
2023-10-03T06:24:33.636Z,88.20
2023-10-03T06:27:04.056Z,88.20
2023-10-03T06:29:31.726Z,88.20
2023-10-03T06:32:06.872Z,87.90
2023-10-03T06:34:34.758Z,87.80
2023-10-03T06:37:05.666Z,87.60
2023-10-03T06:39:33.581Z,87.80
2023-10-03T06:42:00.807Z,87.90
2023-10-03T06:44:28.833Z,87.60
2023-10-03T06:46:58.401Z,87.70
2023-10-03T06:49:28.419Z,87.70
2023-10-03T06:51:59.035Z,87.20
2023-10-03T06:54:30.295Z,86.90
2023-10-03T06:57:03.588Z,86.90
2023-10-03T06:59:31.237Z,86.80
2023-10-03T07:01:58.700Z,87.00
2023-10-03T07:04:28.599Z,87.30
2023-10-03T07:06:56.576Z,87.60
2023-10-03T07:09:24.325Z,87.60
2023-10-03T07:11:52.071Z,87.60
2023-10-03T07:14:20.412Z,87.70
2023-10-03T07:16:50.483Z,87.90
2023-10-03T07:19:24.626Z,87.60
2023-10-03T07:21:54.940Z,87.30
2023-10-03T07:24:22.937Z,87.10
2023-10-03T07:26:50.809Z,86.90
2023-10-03T07:29:18.958Z,86.50
2023-10-03T07:31:48.215Z,86.50
2023-10-03T07:34:20.822Z,86.20
2023-10-03T07:36:51.489Z,86.00
2023-10-03T07:39:19.572Z,86.00
2023-10-03T07:41:56.680Z,85.80
2023-10-03T07:44:28.531Z,85.20
2023-10-03T07:46:57.254Z,84.90
2023-10-03T07:49:27.317Z,84.50
2023-10-03T07:51:55.680Z,84.60
2023-10-03T07:54:27.873Z,84.60
2023-10-03T07:56:55.912Z,84.30
2023-10-03T07:59:27.234Z,84.10
2023-10-03T08:02:01.110Z,84.30
2023-10-03T08:04:34.112Z,83.90
2023-10-03T08:07:15.947Z,82.00
2023-10-03T08:09:49.582Z,81.60
2023-10-03T08:12:25.625Z,80.80
2023-10-03T08:14:56.295Z,80.70
2023-10-03T08:17:27.907Z,80.70
2023-10-03T08:19:58.692Z,81.00
2023-10-03T08:22:26.533Z,81.10
2023-10-03T08:25:01.254Z,81.90
2023-10-03T08:27:31.884Z,82.00
2023-10-03T08:29:59.578Z,82.30
2023-10-03T08:32:27.357Z,82.40
2023-10-03T08:34:55.094Z,82.50
2023-10-03T08:37:23.653Z,82.50
2023-10-03T08:39:56.311Z,82.40
2023-10-03T08:42:45.107Z,82.50
2023-10-03T08:45:18.950Z,82.30
2023-10-03T08:47:52.187Z,82.60
2023-10-03T08:50:31.406Z,82.80
2023-10-03T08:53:14.119Z,83.10
2023-10-03T08:55:45.369Z,83.50
2023-10-03T08:58:17.353Z,83.70
2023-10-03T09:00:48.401Z,84.10
2023-10-03T09:03:18.129Z,84.10
2023-10-03T09:05:46.727Z,84.50
2023-10-03T09:08:16.986Z,84.70
2023-10-03T09:10:53.826Z,84.70
2023-10-03T09:13:29.719Z,84.80
2023-10-03T09:16:02.841Z,84.80
2023-10-03T09:18:44.134Z,84.80
2023-10-03T09:21:26.880Z,84.90
2023-10-03T09:24:03.516Z,84.80
2023-10-03T09:26:48.597Z,84.70
2023-10-03T09:29:34.131Z,84.70
2023-10-03T09:32:18.739Z,85.00
2023-10-03T09:34:51.379Z,84.80
2023-10-03T09:37:18.916Z,84.60
2023-10-03T09:39:50.524Z,84.60
2023-10-03T09:42:41.924Z,83.60
2023-10-03T09:45:18.479Z,82.70
2023-10-03T09:48:10.387Z,82.10
2023-10-03T09:50:54.636Z,81.60
2023-10-03T09:53:31.822Z,81.40
2023-10-03T09:56:03.043Z,81.30
2023-10-03T09:58:34.872Z,81.30
2023-10-03T10:01:03.070Z,81.20
2023-10-03T10:03:40.125Z,81.30
2023-10-03T10:06:39.309Z,81.40
2023-10-03T10:09:15.023Z,81.50
2023-10-03T10:12:20.071Z,81.50
2023-10-03T10:15:02.411Z,81.50
2023-10-03T10:18:00.323Z,81.00
2023-10-03T10:20:34.116Z,81.20
2023-10-03T10:23:06.396Z,81.00
2023-10-03T10:25:47.038Z,81.10
2023-10-03T10:28:21.932Z,81.20
2023-10-03T10:31:28.261Z,81.10
2023-10-03T10:34:21.744Z,81.00
2023-10-03T10:36:58.085Z,81.20
2023-10-03T10:40:11.460Z,81.50
2023-10-03T10:43:00.939Z,81.50
2023-10-03T10:45:42.037Z,81.80
2023-10-03T10:48:10.379Z,82.00
2023-10-03T10:51:15.055Z,82.80
2023-10-03T10:53:45.073Z,83.00
2023-10-03T10:56:13.956Z,83.50
2023-10-03T10:58:48.107Z,83.80
2023-10-03T11:01:15.605Z,84.00
2023-10-03T11:03:47.143Z,84.20
2023-10-03T11:06:17.126Z,84.60
2023-10-03T11:08:49.326Z,84.80
2023-10-03T11:11:17.601Z,85.20
2023-10-03T11:13:47.459Z,85.30
2023-10-03T11:16:29.622Z,85.40
2023-10-03T11:19:00.037Z,85.20
2023-10-03T11:21:52.702Z,85.10
2023-10-03T11:24:26.746Z,84.90
2023-10-03T11:27:01.081Z,84.80
2023-10-03T11:29:46.627Z,84.80
2023-10-03T11:32:19.402Z,84.70
2023-10-03T11:34:50.681Z,85.00
2023-10-03T11:37:46.214Z,84.60
2023-10-03T11:40:16.670Z,84.50
2023-10-03T11:43:10.342Z,83.90
2023-10-03T11:45:38.904Z,83.20
2023-10-03T11:48:12.248Z,83.80
2023-10-03T11:50:44.436Z,83.30
2023-10-03T11:53:13.748Z,83.30
2023-10-03T11:55:45.327Z,83.10
2023-10-03T11:58:18.766Z,82.90
2023-10-03T12:00:47.353Z,82.60
2023-10-03T12:03:44.822Z,82.20
2023-10-03T12:06:17.704Z,82.40
2023-10-03T12:08:48.742Z,82.40
2023-10-03T12:11:24.110Z,82.70
2023-10-03T12:13:51.687Z,82.80
2023-10-03T12:16:21.110Z,82.90
2023-10-03T12:18:48.845Z,83.20
2023-10-03T12:21:49.801Z,83.20
2023-10-03T12:24:18.516Z,83.40
2023-10-03T12:26:46.615Z,83.30
2023-10-03T12:29:21.059Z,83.30
2023-10-03T12:31:55.447Z,83.30
2023-10-03T12:34:27.116Z,83.20
2023-10-03T12:36:54.833Z,82.90
2023-10-03T12:39:26.221Z,83.00
2023-10-03T12:42:04.298Z,82.90
2023-10-03T12:44:54.263Z,82.90
2023-10-03T12:47:31.944Z,82.60
2023-10-03T12:50:03.356Z,82.20
2023-10-03T12:52:31.977Z,82.10
2023-10-03T12:55:02.471Z,82.00
2023-10-03T12:57:31.612Z,81.70
2023-10-03T12:59:59.049Z,81.20
2023-10-03T13:02:26.321Z,80.80
2023-10-03T13:04:58.619Z,80.80
2023-10-03T13:07:26.916Z,80.90
2023-10-03T13:09:54.606Z,80.80
2023-10-03T13:12:22.739Z,80.70
2023-10-03T13:14:50.849Z,80.40
2023-10-03T13:17:21.434Z,80.20
2023-10-03T13:19:50.044Z,80.00
2023-10-03T13:22:18.141Z,79.80
2023-10-03T13:24:45.758Z,79.40
2023-10-03T13:27:14.099Z,79.40
2023-10-03T13:29:43.259Z,79.40
2023-10-03T13:32:10.788Z,79.60
2023-10-03T13:34:38.161Z,79.40
2023-10-03T13:37:08.626Z,79.70
2023-10-03T13:39:36.569Z,80.10
2023-10-03T13:42:04.843Z,80.10
2023-10-03T13:44:35.297Z,80.30
2023-10-03T13:47:04.871Z,80.30
2023-10-03T13:49:33.450Z,80.20
2023-10-03T13:52:17.614Z,80.00
2023-10-03T13:54:59.432Z,79.90
2023-10-03T13:57:37.253Z,79.60
2023-10-03T14:00:08.356Z,79.50
2023-10-03T14:02:36.013Z,79.60
2023-10-03T14:05:07.790Z,79.80
2023-10-03T14:07:35.820Z,80.10
2023-10-03T14:10:07.645Z,80.20
2023-10-03T14:12:35.632Z,80.60
2023-10-03T14:15:11.603Z,80.40
2023-10-03T14:17:40.027Z,80.40
2023-10-03T14:20:12.003Z,80.00
2023-10-03T14:22:43.215Z,80.20
2023-10-03T14:25:16.616Z,79.90
2023-10-03T14:27:45.797Z,79.90
2023-10-03T14:30:15.025Z,79.70
2023-10-03T14:32:43.363Z,79.80
2023-10-03T14:35:13.929Z,79.40
2023-10-03T14:37:41.925Z,79.30
2023-10-03T14:40:11.899Z,79.10
2023-10-03T14:42:40.086Z,78.90
2023-10-03T14:45:14.897Z,78.90
2023-10-03T14:47:43.679Z,78.80
2023-10-03T14:50:12.504Z,78.80
2023-10-03T14:52:40.856Z,78.80
2023-10-03T14:55:11.588Z,78.60
2023-10-03T14:57:43.373Z,78.60
2023-10-03T15:00:11.393Z,78.70
2023-10-03T15:02:39.506Z,78.70
2023-10-03T15:05:10.836Z,78.70
2023-10-03T15:07:38.875Z,78.70
2023-10-03T15:10:08.700Z,78.80
2023-10-03T15:12:36.711Z,78.90
2023-10-03T15:15:05.822Z,79.10
2023-10-03T15:17:43.477Z,79.10
2023-10-03T15:20:13.078Z,79.30
2023-10-03T15:22:40.626Z,79.30
2023-10-03T15:25:08.547Z,79.50
2023-10-03T15:27:36.768Z,79.40
2023-10-03T15:30:07.609Z,79.30
2023-10-03T15:32:34.836Z,79.40
2023-10-03T15:35:06.533Z,79.60
2023-10-03T15:37:35.156Z,79.40
2023-10-03T15:40:02.910Z,79.40
2023-10-03T15:42:33.553Z,79.20
2023-10-03T15:45:12.364Z,79.10
2023-10-03T15:47:42.465Z,79.00
2023-10-03T15:50:11.934Z,78.90
2023-10-03T15:52:43.746Z,78.70
2023-10-03T15:55:16.719Z,78.50
2023-10-03T15:57:45.754Z,78.50
2023-10-03T16:00:16.224Z,78.50
2023-10-03T16:02:44.577Z,78.50
2023-10-03T16:05:12.295Z,78.20
2023-10-03T16:07:40.209Z,78.30
2023-10-03T16:10:08.396Z,78.00
2023-10-03T16:12:38.218Z,78.10
2023-10-03T16:15:07.062Z,78.10
2023-10-03T16:17:35.645Z,78.10
2023-10-03T16:20:08.299Z,78.00
2023-10-03T16:22:36.160Z,77.90
2023-10-03T16:25:07.686Z,77.80
2023-10-03T16:27:37.151Z,77.90
2023-10-03T16:30:08.051Z,77.80
2023-10-03T16:32:36.839Z,77.90
2023-10-03T16:35:04.789Z,77.60
2023-10-03T16:37:33.482Z,77.70
2023-10-03T16:40:01.573Z,77.70
2023-10-03T16:42:32.758Z,77.60
2023-10-03T16:45:01.436Z,77.60
2023-10-03T16:47:34.540Z,77.50
2023-10-03T16:50:02.922Z,77.60
2023-10-03T16:52:31.829Z,77.60
2023-10-03T16:55:00.258Z,77.70
2023-10-03T16:57:27.891Z,77.60
2023-10-03T16:59:55.963Z,77.60
2023-10-03T17:02:23.618Z,77.50
2023-10-03T17:04:52.433Z,77.40
2023-10-03T17:07:20.097Z,77.40
2023-10-03T17:09:48.563Z,77.40
2023-10-03T17:12:17.115Z,77.50
2023-10-03T17:14:44.807Z,77.40
2023-10-03T17:17:13.167Z,77.30
2023-10-03T17:19:41.047Z,77.30
2023-10-03T17:22:08.390Z,77.20
2023-10-03T17:24:36.071Z,77.10
2023-10-03T17:27:03.381Z,77.20
2023-10-03T17:29:30.926Z,77.20
2023-10-03T17:32:01.158Z,77.30
2023-10-03T17:34:30.989Z,77.10
2023-10-03T17:36:58.552Z,77.10
2023-10-03T17:39:28.261Z,76.90
2023-10-03T17:41:56.719Z,76.70
2023-10-03T17:44:24.468Z,76.70
2023-10-03T17:46:51.815Z,76.70
2023-10-03T17:49:19.384Z,76.70
2023-10-03T17:51:46.875Z,76.60
2023-10-03T17:54:27.474Z,76.60
2023-10-03T17:57:00.706Z,76.50
2023-10-03T17:59:30.006Z,76.30
2023-10-03T18:01:58.618Z,76.10
2023-10-03T18:04:26.854Z,75.90
2023-10-03T18:06:55.300Z,75.70
2023-10-03T18:09:25.755Z,75.50
2023-10-03T18:11:56.193Z,75.40
2023-10-03T18:14:24.118Z,75.40
2023-10-03T18:16:51.925Z,75.60
2023-10-03T18:19:19.398Z,75.80
2023-10-03T18:21:47.022Z,76.00
2023-10-03T18:24:14.266Z,76.40
2023-10-03T18:26:43.342Z,76.60
2023-10-03T18:29:15.768Z,76.80
2023-10-03T18:31:43.902Z,77.10
2023-10-03T18:34:11.370Z,77.70
2023-10-03T18:36:43.968Z,77.80
2023-10-03T18:39:13.487Z,77.90
2023-10-03T18:41:46.877Z,78.10
2023-10-03T18:44:16.976Z,78.10
2023-10-03T18:46:46.721Z,78.30
2023-10-03T18:49:14.214Z,78.30
2023-10-03T18:51:41.968Z,78.50
2023-10-03T18:54:09.240Z,78.60
2023-10-03T18:56:39.378Z,78.60
2023-10-03T18:59:07.313Z,78.60
2023-10-03T19:01:46.577Z,78.60
2023-10-03T19:04:16.752Z,78.60
2023-10-03T19:06:44.504Z,78.50
2023-10-03T19:09:15.106Z,78.50
2023-10-03T19:11:46.938Z,78.60
2023-10-03T19:14:14.212Z,78.50
2023-10-03T19:16:41.605Z,78.60
2023-10-03T19:19:09.751Z,78.60
2023-10-03T19:21:38.128Z,78.50
2023-10-03T19:24:05.955Z,78.60
2023-10-03T19:26:33.162Z,78.60
2023-10-03T19:29:01.033Z,78.50
2023-10-03T19:31:28.881Z,78.50
2023-10-03T19:33:56.854Z,78.60
2023-10-03T19:36:24.117Z,78.60
2023-10-03T19:38:51.948Z,78.60
2023-10-03T19:41:20.522Z,78.70
2023-10-03T19:43:50.021Z,78.70
2023-10-03T19:46:18.583Z,78.70
2023-10-03T19:48:46.703Z,78.70
2023-10-03T19:51:17.394Z,78.80
2023-10-03T19:53:45.418Z,78.90
2023-10-03T19:56:17.490Z,78.90
2023-10-03T19:58:45.434Z,79.00
2023-10-03T20:01:23.457Z,79.10
2023-10-03T20:03:53.827Z,79.30
2023-10-03T20:06:21.871Z,79.40
2023-10-03T20:08:49.328Z,79.50
2023-10-03T20:11:17.127Z,79.60
2023-10-03T20:13:44.277Z,79.70
2023-10-03T20:16:16.015Z,79.80
2023-10-03T20:18:43.697Z,79.80
2023-10-03T20:21:12.477Z,79.80
2023-10-03T20:23:40.375Z,79.80
2023-10-03T20:26:07.653Z,79.80
2023-10-03T20:28:34.976Z,79.70
2023-10-03T20:31:02.963Z,79.60
2023-10-03T20:33:31.662Z,79.60
2023-10-03T20:35:59.940Z,79.60
2023-10-03T20:38:27.964Z,79.60
2023-10-03T20:40:55.428Z,79.70
2023-10-03T20:43:23.015Z,79.60
2023-10-03T20:45:50.752Z,79.50
2023-10-03T20:48:18.192Z,79.60
2023-10-03T20:50:45.872Z,79.40
2023-10-03T20:53:15.970Z,79.50
2023-10-03T20:55:43.820Z,79.40
2023-10-03T20:58:13.720Z,79.40
2023-10-03T21:00:41.786Z,79.40
2023-10-03T21:03:10.119Z,79.40
2023-10-03T21:05:41.004Z,79.30
2023-10-03T21:08:10.560Z,79.40
2023-10-03T21:10:42.399Z,79.50
2023-10-03T21:13:11.296Z,79.50
2023-10-03T21:15:39.704Z,79.60
2023-10-03T21:18:09.595Z,79.50
2023-10-03T21:20:37.786Z,79.50
2023-10-03T21:23:05.687Z,79.50
2023-10-03T21:25:33.112Z,79.50
2023-10-03T21:28:02.109Z,79.70
2023-10-03T21:30:32.565Z,79.60
2023-10-03T21:33:00.117Z,79.70
2023-10-03T21:35:27.613Z,79.80
2023-10-03T21:37:54.899Z,79.70
2023-10-03T21:40:25.120Z,79.70
2023-10-03T21:42:53.111Z,79.60
2023-10-03T21:45:20.496Z,79.70
2023-10-03T21:47:48.178Z,79.60
2023-10-03T21:50:16.170Z,79.60
2023-10-03T21:52:43.696Z,79.50
2023-10-03T21:55:11.748Z,79.50
2023-10-03T21:57:39.929Z,79.50
2023-10-03T22:00:26.838Z,79.40
2023-10-03T22:02:55.454Z,79.50
2023-10-03T22:05:23.157Z,79.50
2023-10-03T22:07:50.999Z,79.60
2023-10-03T22:10:20.118Z,79.40
2023-10-03T22:12:49.253Z,79.50
2023-10-03T22:15:16.871Z,79.20
2023-10-03T22:17:44.706Z,78.60
2023-10-03T22:20:12.841Z,78.10
2023-10-03T22:22:40.728Z,77.80
2023-10-03T22:25:09.835Z,77.70
2023-10-03T22:27:37.732Z,77.60
2023-10-03T22:30:07.144Z,77.20
2023-10-03T22:32:35.221Z,77.10
2023-10-03T22:35:03.672Z,76.70
2023-10-03T22:37:32.568Z,75.70
2023-10-03T22:40:29.197Z,75.40
2023-10-03T22:42:54.867Z,75.30
2023-10-03T22:45:22.508Z,75.20
2023-10-03T22:47:50.768Z,75.40
2023-10-03T22:50:20.450Z,75.10
2023-10-03T22:52:49.684Z,75.20
2023-10-03T22:55:17.273Z,75.20
2023-10-03T22:57:46.215Z,75.40
2023-10-03T23:00:17.297Z,75.50
2023-10-03T23:02:44.848Z,75.80
2023-10-03T23:05:14.625Z,76.00
2023-10-03T23:07:42.101Z,76.10
2023-10-03T23:10:12.857Z,75.80
2023-10-03T23:12:43.690Z,75.40
2023-10-03T23:15:12.584Z,74.70
2023-10-03T23:17:41.251Z,75.00
2023-10-03T23:20:09.537Z,75.10
2023-10-03T23:22:37.147Z,75.10
2023-10-03T23:25:06.183Z,75.20
2023-10-03T23:27:33.919Z,75.20
2023-10-03T23:30:02.254Z,75.50
2023-10-03T23:32:33.276Z,75.70
2023-10-03T23:35:01.042Z,75.90
2023-10-03T23:37:29.130Z,76.30
2023-10-03T23:39:57.028Z,76.40
2023-10-03T23:42:24.749Z,76.80
2023-10-03T23:44:52.476Z,77.00
2023-10-03T23:47:19.786Z,77.30
2023-10-03T23:49:48.037Z,77.50
2023-10-03T23:52:15.850Z,77.70
2023-10-03T23:54:44.572Z,77.70
2023-10-03T23:57:18.175Z,78.00
2023-10-03T23:59:46.644Z,78.10
